sensor_id;sensor_type;location;lat;lon;timestamp;P1;durP1;ratioP1;P2;durP2;ratioP2
793;SDS011;380;48.738;9.214;2024-02-26T00:00:34;2.10;;;0.90;;
793;SDS011;380;48.738;9.214;2024-02-26T00:03:00;1.90;;;0.90;;
793;SDS011;380;48.738;9.214;2024-02-26T00:05:26;2.03;;;1.00;;
793;SDS011;380;48.738;9.214;2024-02-26T00:07:59;2.53;;;1.30;;
793;SDS011;380;48.738;9.214;2024-02-26T00:10:25;2.25;;;1.17;;
793;SDS011;380;48.738;9.214;2024-02-26T00:12:51;2.20;;;1.27;;
793;SDS011;380;48.738;9.214;2024-02-26T00:15:17;2.63;;;1.40;;
793;SDS011;380;48.738;9.214;2024-02-26T00:17:43;2.53;;;1.23;;
793;SDS011;380;48.738;9.214;2024-02-26T00:20:10;3.03;;;1.60;;
793;SDS011;380;48.738;9.214;2024-02-26T00:22:36;2.80;;;1.42;;
793;SDS011;380;48.738;9.214;2024-02-26T00:25:02;2.15;;;1.42;;
793;SDS011;380;48.738;9.214;2024-02-26T00:27:28;2.53;;;1.67;;
793;SDS011;380;48.738;9.214;2024-02-26T00:29:54;2.38;;;1.27;;
793;SDS011;380;48.738;9.214;2024-02-26T00:32:19;5.13;;;1.50;;
793;SDS011;380;48.738;9.214;2024-02-26T00:34:45;2.38;;;1.52;;
793;SDS011;380;48.738;9.214;2024-02-26T00:37:11;3.22;;;1.52;;
793;SDS011;380;48.738;9.214;2024-02-26T00:39:37;2.55;;;1.40;;
793;SDS011;380;48.738;9.214;2024-02-26T00:42:04;3.50;;;1.38;;
793;SDS011;380;48.738;9.214;2024-02-26T00:44:30;2.65;;;1.50;;
793;SDS011;380;48.738;9.214;2024-02-26T00:46:56;2.35;;;1.55;;
793;SDS011;380;48.738;9.214;2024-02-26T00:49:22;2.13;;;1.40;;
793;SDS011;380;48.738;9.214;2024-02-26T00:51:48;2.40;;;1.35;;
793;SDS011;380;48.738;9.214;2024-02-26T00:54:14;2.88;;;1.48;;
793;SDS011;380;48.738;9.214;2024-02-26T00:56:40;2.25;;;1.35;;
793;SDS011;380;48.738;9.214;2024-02-26T00:59:06;2.15;;;1.23;;
793;SDS011;380;48.738;9.214;2024-02-26T01:01:32;2.28;;;1.35;;
793;SDS011;380;48.738;9.214;2024-02-26T01:03:58;2.63;;;1.42;;
793;SDS011;380;48.738;9.214;2024-02-26T01:06:24;2.97;;;1.48;;
793;SDS011;380;48.738;9.214;2024-02-26T01:08:50;3.83;;;1.25;;
793;SDS011;380;48.738;9.214;2024-02-26T01:11:16;2.15;;;1.38;;
793;SDS011;380;48.738;9.214;2024-02-26T01:13:42;3.95;;;1.60;;
793;SDS011;380;48.738;9.214;2024-02-26T01:16:08;2.70;;;1.45;;
793;SDS011;380;48.738;9.214;2024-02-26T01:18:34;2.58;;;1.20;;
793;SDS011;380;48.738;9.214;2024-02-26T01:21:00;1.98;;;1.35;;
793;SDS011;380;48.738;9.214;2024-02-26T01:23:26;3.13;;;1.63;;
793;SDS011;380;48.738;9.214;2024-02-26T01:25:52;1.48;;;0.90;;
793;SDS011;380;48.738;9.214;2024-02-26T01:28:18;3.97;;;1.58;;
793;SDS011;380;48.738;9.214;2024-02-26T01:30:44;2.95;;;1.60;;
793;SDS011;380;48.738;9.214;2024-02-26T01:33:10;4.55;;;1.85;;
793;SDS011;380;48.738;9.214;2024-02-26T01:35:36;1.80;;;1.00;;
793;SDS011;380;48.738;9.214;2024-02-26T01:38:02;2.25;;;1.25;;
793;SDS011;380;48.738;9.214;2024-02-26T01:40:28;3.55;;;1.48;;
793;SDS011;380;48.738;9.214;2024-02-26T01:42:55;3.10;;;1.83;;
793;SDS011;380;48.738;9.214;2024-02-26T01:45:21;3.05;;;1.70;;
793;SDS011;380;48.738;9.214;2024-02-26T01:47:49;2.35;;;1.38;;
793;SDS011;380;48.738;9.214;2024-02-26T01:50:16;2.38;;;1.35;;
793;SDS011;380;48.738;9.214;2024-02-26T01:52:42;2.25;;;1.38;;
793;SDS011;380;48.738;9.214;2024-02-26T01:55:09;1.55;;;1.05;;
793;SDS011;380;48.738;9.214;2024-02-26T01:57:35;1.88;;;1.13;;
793;SDS011;380;48.738;9.214;2024-02-26T02:00:01;2.20;;;1.30;;
793;SDS011;380;48.738;9.214;2024-02-26T02:02:30;2.05;;;1.33;;
793;SDS011;380;48.738;9.214;2024-02-26T02:04:56;2.28;;;1.30;;
793;SDS011;380;48.738;9.214;2024-02-26T02:07:22;3.30;;;1.40;;
793;SDS011;380;48.738;9.214;2024-02-26T02:09:48;2.13;;;1.27;;
793;SDS011;380;48.738;9.214;2024-02-26T02:12:14;2.88;;;1.85;;
793;SDS011;380;48.738;9.214;2024-02-26T02:14:40;3.63;;;2.22;;
793;SDS011;380;48.738;9.214;2024-02-26T02:17:06;2.95;;;1.65;;
793;SDS011;380;48.738;9.214;2024-02-26T02:19:32;2.53;;;1.50;;
793;SDS011;380;48.738;9.214;2024-02-26T02:21:58;2.42;;;1.50;;
793;SDS011;380;48.738;9.214;2024-02-26T02:24:24;2.25;;;1.40;;
793;SDS011;380;48.738;9.214;2024-02-26T02:26:50;2.10;;;1.30;;
793;SDS011;380;48.738;9.214;2024-02-26T02:29:17;2.53;;;1.17;;
793;SDS011;380;48.738;9.214;2024-02-26T02:31:42;2.83;;;1.45;;
793;SDS011;380;48.738;9.214;2024-02-26T02:34:09;2.17;;;1.00;;
793;SDS011;380;48.738;9.214;2024-02-26T02:36:35;2.00;;;1.25;;
793;SDS011;380;48.738;9.214;2024-02-26T02:39:01;1.77;;;0.80;;
793;SDS011;380;48.738;9.214;2024-02-26T02:41:27;2.30;;;0.88;;
793;SDS011;380;48.738;9.214;2024-02-26T02:43:54;1.48;;;0.65;;
793;SDS011;380;48.738;9.214;2024-02-26T02:46:21;1.75;;;0.88;;
793;SDS011;380;48.738;9.214;2024-02-26T02:48:47;1.05;;;0.65;;
793;SDS011;380;48.738;9.214;2024-02-26T02:51:12;1.15;;;0.60;;
793;SDS011;380;48.738;9.214;2024-02-26T02:53:38;1.40;;;0.70;;
793;SDS011;380;48.738;9.214;2024-02-26T02:56:04;1.45;;;0.80;;
793;SDS011;380;48.738;9.214;2024-02-26T02:58:30;0.98;;;0.50;;
793;SDS011;380;48.738;9.214;2024-02-26T03:00:57;1.40;;;0.60;;
793;SDS011;380;48.738;9.214;2024-02-26T03:03:25;1.35;;;0.60;;
793;SDS011;380;48.738;9.214;2024-02-26T03:05:53;1.38;;;0.80;;
793;SDS011;380;48.738;9.214;2024-02-26T03:08:19;1.17;;;0.50;;
793;SDS011;380;48.738;9.214;2024-02-26T03:10:45;1.15;;;0.50;;
793;SDS011;380;48.738;9.214;2024-02-26T03:13:11;1.23;;;0.60;;
793;SDS011;380;48.738;9.214;2024-02-26T03:15:37;1.85;;;0.90;;
793;SDS011;380;48.738;9.214;2024-02-26T03:18:03;0.90;;;0.50;;
793;SDS011;380;48.738;9.214;2024-02-26T03:20:29;0.88;;;0.57;;
793;SDS011;380;48.738;9.214;2024-02-26T03:22:54;2.28;;;0.85;;
793;SDS011;380;48.738;9.214;2024-02-26T03:25:20;0.88;;;0.40;;
793;SDS011;380;48.738;9.214;2024-02-26T03:27:46;1.40;;;0.80;;
793;SDS011;380;48.738;9.214;2024-02-26T03:30:12;1.27;;;0.60;;
793;SDS011;380;48.738;9.214;2024-02-26T03:32:38;1.38;;;0.70;;
793;SDS011;380;48.738;9.214;2024-02-26T03:35:04;1.02;;;0.57;;
793;SDS011;380;48.738;9.214;2024-02-26T03:37:31;1.15;;;0.55;;
793;SDS011;380;48.738;9.214;2024-02-26T03:39:57;0.95;;;0.50;;
793;SDS011;380;48.738;9.214;2024-02-26T03:42:23;1.38;;;0.47;;
793;SDS011;380;48.738;9.214;2024-02-26T03:44:49;1.73;;;0.73;;
793;SDS011;380;48.738;9.214;2024-02-26T03:47:16;2.17;;;0.88;;
793;SDS011;380;48.738;9.214;2024-02-26T03:49:42;1.48;;;0.70;;
793;SDS011;380;48.738;9.214;2024-02-26T03:52:08;2.75;;;1.23;;
793;SDS011;380;48.738;9.214;2024-02-26T03:54:33;3.70;;;0.60;;
793;SDS011;380;48.738;9.214;2024-02-26T03:56:59;1.17;;;0.60;;
793;SDS011;380;48.738;9.214;2024-02-26T03:59:25;1.58;;;0.85;;
793;SDS011;380;48.738;9.214;2024-02-26T04:01:51;1.15;;;0.50;;
793;SDS011;380;48.738;9.214;2024-02-26T04:04:17;1.40;;;0.57;;
793;SDS011;380;48.738;9.214;2024-02-26T04:06:46;1.60;;;0.73;;
793;SDS011;380;48.738;9.214;2024-02-26T04:09:15;2.58;;;1.02;;
793;SDS011;380;48.738;9.214;2024-02-26T04:11:41;1.42;;;0.63;;
793;SDS011;380;48.738;9.214;2024-02-26T04:14:10;2.22;;;0.98;;
793;SDS011;380;48.738;9.214;2024-02-26T04:16:37;2.17;;;0.90;;
793;SDS011;380;48.738;9.214;2024-02-26T04:19:03;2.50;;;0.93;;
793;SDS011;380;48.738;9.214;2024-02-26T04:21:29;1.90;;;0.90;;
793;SDS011;380;48.738;9.214;2024-02-26T04:23:55;2.97;;;1.20;;
793;SDS011;380;48.738;9.214;2024-02-26T04:26:21;2.33;;;1.02;;
793;SDS011;380;48.738;9.214;2024-02-26T04:28:47;2.22;;;1.33;;
793;SDS011;380;48.738;9.214;2024-02-26T04:31:13;3.05;;;1.02;;
793;SDS011;380;48.738;9.214;2024-02-26T04:33:39;1.92;;;0.98;;
793;SDS011;380;48.738;9.214;2024-02-26T04:36:11;4.05;;;0.98;;
793;SDS011;380;48.738;9.214;2024-02-26T04:38:37;1.80;;;0.90;;
793;SDS011;380;48.738;9.214;2024-02-26T04:41:03;2.78;;;1.23;;
793;SDS011;380;48.738;9.214;2024-02-26T04:43:29;2.53;;;1.27;;
793;SDS011;380;48.738;9.214;2024-02-26T04:45:55;2.35;;;1.10;;
793;SDS011;380;48.738;9.214;2024-02-26T04:48:22;1.92;;;1.20;;
793;SDS011;380;48.738;9.214;2024-02-26T04:50:48;2.55;;;1.38;;
793;SDS011;380;48.738;9.214;2024-02-26T04:53:14;2.40;;;1.52;;
793;SDS011;380;48.738;9.214;2024-02-26T04:55:40;2.75;;;1.40;;
793;SDS011;380;48.738;9.214;2024-02-26T04:58:06;3.42;;;1.60;;
793;SDS011;380;48.738;9.214;2024-02-26T05:00:31;2.53;;;1.50;;
793;SDS011;380;48.738;9.214;2024-02-26T05:02:57;5.50;;;2.08;;
793;SDS011;380;48.738;9.214;2024-02-26T05:05:23;2.70;;;1.67;;
793;SDS011;380;48.738;9.214;2024-02-26T05:07:49;3.30;;;1.65;;
793;SDS011;380;48.738;9.214;2024-02-26T05:10:15;4.30;;;2.15;;
793;SDS011;380;48.738;9.214;2024-02-26T05:12:41;3.67;;;2.03;;
793;SDS011;380;48.738;9.214;2024-02-26T05:15:07;3.22;;;1.88;;
793;SDS011;380;48.738;9.214;2024-02-26T05:17:34;3.58;;;1.90;;
793;SDS011;380;48.738;9.214;2024-02-26T05:19:59;3.30;;;2.00;;
793;SDS011;380;48.738;9.214;2024-02-26T05:22:25;2.65;;;1.52;;
793;SDS011;380;48.738;9.214;2024-02-26T05:24:51;2.40;;;1.60;;
793;SDS011;380;48.738;9.214;2024-02-26T05:27:17;4.65;;;1.88;;
793;SDS011;380;48.738;9.214;2024-02-26T05:29:43;3.00;;;1.88;;
793;SDS011;380;48.738;9.214;2024-02-26T05:32:09;2.63;;;1.65;;
793;SDS011;380;48.738;9.214;2024-02-26T05:34:35;3.10;;;1.45;;
793;SDS011;380;48.738;9.214;2024-02-26T05:37:01;2.67;;;1.67;;
793;SDS011;380;48.738;9.214;2024-02-26T05:39:27;3.53;;;2.20;;
793;SDS011;380;48.738;9.214;2024-02-26T05:41:53;2.70;;;1.80;;
793;SDS011;380;48.738;9.214;2024-02-26T05:44:20;2.78;;;1.83;;
793;SDS011;380;48.738;9.214;2024-02-26T05:46:46;3.45;;;1.88;;
793;SDS011;380;48.738;9.214;2024-02-26T05:49:12;2.80;;;1.65;;
793;SDS011;380;48.738;9.214;2024-02-26T05:51:38;3.53;;;1.90;;
793;SDS011;380;48.738;9.214;2024-02-26T05:54:07;2.97;;;1.65;;
793;SDS011;380;48.738;9.214;2024-02-26T05:56:33;3.38;;;1.90;;
793;SDS011;380;48.738;9.214;2024-02-26T05:58:59;2.88;;;1.58;;
793;SDS011;380;48.738;9.214;2024-02-26T06:01:25;2.00;;;1.23;;
793;SDS011;380;48.738;9.214;2024-02-26T06:03:51;2.83;;;1.60;;
793;SDS011;380;48.738;9.214;2024-02-26T06:06:17;2.95;;;1.60;;
793;SDS011;380;48.738;9.214;2024-02-26T06:08:43;2.05;;;1.35;;
793;SDS011;380;48.738;9.214;2024-02-26T06:11:09;2.95;;;1.50;;
793;SDS011;380;48.738;9.214;2024-02-26T06:13:35;2.50;;;1.52;;
793;SDS011;380;48.738;9.214;2024-02-26T06:16:01;2.95;;;1.25;;
793;SDS011;380;48.738;9.214;2024-02-26T06:18:27;2.30;;;1.42;;
793;SDS011;380;48.738;9.214;2024-02-26T06:20:53;2.95;;;1.70;;
793;SDS011;380;48.738;9.214;2024-02-26T06:23:19;5.72;;;1.88;;
793;SDS011;380;48.738;9.214;2024-02-26T06:25:45;2.63;;;1.38;;
793;SDS011;380;48.738;9.214;2024-02-26T06:28:12;4.22;;;1.70;;
793;SDS011;380;48.738;9.214;2024-02-26T06:30:38;2.42;;;1.30;;
793;SDS011;380;48.738;9.214;2024-02-26T06:33:04;2.00;;;1.13;;
793;SDS011;380;48.738;9.214;2024-02-26T06:35:31;3.00;;;1.33;;
793;SDS011;380;48.738;9.214;2024-02-26T06:37:57;2.53;;;1.20;;
793;SDS011;380;48.738;9.214;2024-02-26T06:40:23;2.60;;;1.30;;
793;SDS011;380;48.738;9.214;2024-02-26T06:42:50;2.50;;;1.50;;
793;SDS011;380;48.738;9.214;2024-02-26T06:45:16;2.25;;;1.35;;
793;SDS011;380;48.738;9.214;2024-02-26T06:47:43;1.65;;;0.93;;
793;SDS011;380;48.738;9.214;2024-02-26T06:50:11;2.47;;;1.58;;
793;SDS011;380;48.738;9.214;2024-02-26T06:52:38;2.95;;;1.40;;
793;SDS011;380;48.738;9.214;2024-02-26T06:55:04;3.03;;;1.50;;
793;SDS011;380;48.738;9.214;2024-02-26T06:57:33;2.92;;;1.38;;
793;SDS011;380;48.738;9.214;2024-02-26T07:00:00;3.17;;;1.42;;
793;SDS011;380;48.738;9.214;2024-02-26T07:02:28;3.50;;;1.60;;
793;SDS011;380;48.738;9.214;2024-02-26T07:04:54;4.57;;;1.67;;
793;SDS011;380;48.738;9.214;2024-02-26T07:07:21;2.55;;;1.40;;
793;SDS011;380;48.738;9.214;2024-02-26T07:09:48;2.95;;;1.48;;
793;SDS011;380;48.738;9.214;2024-02-26T07:12:14;4.53;;;1.42;;
793;SDS011;380;48.738;9.214;2024-02-26T07:14:41;2.10;;;1.30;;
793;SDS011;380;48.738;9.214;2024-02-26T07:17:07;3.28;;;1.60;;
793;SDS011;380;48.738;9.214;2024-02-26T07:19:33;5.03;;;1.75;;
793;SDS011;380;48.738;9.214;2024-02-26T07:21:59;2.47;;;1.35;;
793;SDS011;380;48.738;9.214;2024-02-26T07:24:26;2.25;;;1.10;;
793;SDS011;380;48.738;9.214;2024-02-26T07:26:53;2.72;;;1.33;;
793;SDS011;380;48.738;9.214;2024-02-26T07:29:20;2.00;;;1.30;;
793;SDS011;380;48.738;9.214;2024-02-26T07:31:46;4.07;;;1.73;;
793;SDS011;380;48.738;9.214;2024-02-26T07:34:13;3.45;;;1.67;;
793;SDS011;380;48.738;9.214;2024-02-26T07:36:39;3.50;;;1.83;;
793;SDS011;380;48.738;9.214;2024-02-26T07:39:05;3.60;;;2.40;;
793;SDS011;380;48.738;9.214;2024-02-26T07:41:31;3.30;;;2.30;;
793;SDS011;380;48.738;9.214;2024-02-26T07:43:57;4.10;;;2.28;;
793;SDS011;380;48.738;9.214;2024-02-26T07:46:24;6.07;;;2.97;;
793;SDS011;380;48.738;9.214;2024-02-26T07:48:50;5.25;;;3.35;;
793;SDS011;380;48.738;9.214;2024-02-26T07:51:16;8.20;;;4.30;;
793;SDS011;380;48.738;9.214;2024-02-26T07:53:42;7.53;;;4.40;;
793;SDS011;380;48.738;9.214;2024-02-26T07:56:08;10.88;;;5.80;;
793;SDS011;380;48.738;9.214;2024-02-26T08:03:52;6.95;;;3.97;;
793;SDS011;380;48.738;9.214;2024-02-26T08:06:18;4.82;;;3.17;;
793;SDS011;380;48.738;9.214;2024-02-26T08:08:44;5.30;;;3.20;;
793;SDS011;380;48.738;9.214;2024-02-26T08:11:10;5.65;;;2.00;;
793;SDS011;380;48.738;9.214;2024-02-26T08:13:36;3.72;;;2.58;;
793;SDS011;380;48.738;9.214;2024-02-26T08:16:02;6.32;;;3.72;;
793;SDS011;380;48.738;9.214;2024-02-26T08:18:28;3.63;;;2.20;;
793;SDS011;380;48.738;9.214;2024-02-26T08:20:53;3.85;;;2.17;;
793;SDS011;380;48.738;9.214;2024-02-26T08:23:19;2.90;;;1.90;;
793;SDS011;380;48.738;9.214;2024-02-26T08:25:45;2.58;;;1.75;;
793;SDS011;380;48.738;9.214;2024-02-26T08:28:11;5.25;;;2.17;;
793;SDS011;380;48.738;9.214;2024-02-26T08:30:39;2.78;;;1.73;;
793;SDS011;380;48.738;9.214;2024-02-26T08:33:04;2.83;;;1.63;;
793;SDS011;380;48.738;9.214;2024-02-26T08:35:30;2.50;;;1.70;;
793;SDS011;380;48.738;9.214;2024-02-26T08:37:56;2.88;;;1.55;;
793;SDS011;380;48.738;9.214;2024-02-26T08:40:22;2.30;;;1.70;;
793;SDS011;380;48.738;9.214;2024-02-26T08:42:48;2.88;;;1.77;;
793;SDS011;380;48.738;9.214;2024-02-26T08:45:14;8.35;;;2.80;;
793;SDS011;380;48.738;9.214;2024-02-26T08:47:40;3.47;;;1.88;;
793;SDS011;380;48.738;9.214;2024-02-26T08:50:06;3.90;;;2.13;;
793;SDS011;380;48.738;9.214;2024-02-26T08:52:34;3.97;;;1.83;;
793;SDS011;380;48.738;9.214;2024-02-26T08:55:00;2.67;;;1.52;;
793;SDS011;380;48.738;9.214;2024-02-26T08:57:27;6.05;;;2.15;;
793;SDS011;380;48.738;9.214;2024-02-26T08:59:53;2.30;;;1.55;;
793;SDS011;380;48.738;9.214;2024-02-26T09:02:19;3.38;;;1.52;;
793;SDS011;380;48.738;9.214;2024-02-26T09:04:45;3.55;;;1.85;;
793;SDS011;380;48.738;9.214;2024-02-26T09:07:11;3.78;;;1.85;;
793;SDS011;380;48.738;9.214;2024-02-26T09:09:37;3.92;;;2.28;;
793;SDS011;380;48.738;9.214;2024-02-26T09:12:03;3.38;;;1.88;;
793;SDS011;380;48.738;9.214;2024-02-26T09:14:29;6.93;;;2.40;;
793;SDS011;380;48.738;9.214;2024-02-26T09:16:55;3.03;;;1.77;;
793;SDS011;380;48.738;9.214;2024-02-26T09:19:21;4.88;;;2.00;;
793;SDS011;380;48.738;9.214;2024-02-26T09:21:46;4.10;;;2.10;;
793;SDS011;380;48.738;9.214;2024-02-26T09:24:12;3.13;;;1.10;;
793;SDS011;380;48.738;9.214;2024-02-26T09:26:38;1.83;;;0.80;;
793;SDS011;380;48.738;9.214;2024-02-26T09:29:04;4.43;;;1.48;;
793;SDS011;380;48.738;9.214;2024-02-26T09:31:31;2.85;;;2.13;;
793;SDS011;380;48.738;9.214;2024-02-26T09:33:57;3.13;;;1.60;;
793;SDS011;380;48.738;9.214;2024-02-26T09:36:23;3.63;;;2.25;;
793;SDS011;380;48.738;9.214;2024-02-26T09:38:49;2.38;;;1.60;;
793;SDS011;380;48.738;9.214;2024-02-26T09:41:15;3.10;;;1.95;;
793;SDS011;380;48.738;9.214;2024-02-26T09:43:42;3.45;;;2.25;;
793;SDS011;380;48.738;9.214;2024-02-26T09:46:10;3.45;;;1.83;;
793;SDS011;380;48.738;9.214;2024-02-26T09:48:36;3.47;;;2.15;;
793;SDS011;380;48.738;9.214;2024-02-26T09:51:03;3.35;;;1.95;;
793;SDS011;380;48.738;9.214;2024-02-26T09:53:29;5.68;;;2.72;;
793;SDS011;380;48.738;9.214;2024-02-26T09:55:58;3.08;;;2.17;;
793;SDS011;380;48.738;9.214;2024-02-26T09:58:24;3.47;;;1.90;;
793;SDS011;380;48.738;9.214;2024-02-26T10:00:53;4.35;;;2.20;;
793;SDS011;380;48.738;9.214;2024-02-26T10:03:21;3.10;;;2.28;;
793;SDS011;380;48.738;9.214;2024-02-26T10:05:48;3.58;;;2.45;;
793;SDS011;380;48.738;9.214;2024-02-26T10:08:15;6.13;;;2.97;;
793;SDS011;380;48.738;9.214;2024-02-26T10:10:43;4.95;;;2.70;;
793;SDS011;380;48.738;9.214;2024-02-26T10:13:09;2.85;;;1.88;;
793;SDS011;380;48.738;9.214;2024-02-26T10:15:37;2.90;;;1.88;;
793;SDS011;380;48.738;9.214;2024-02-26T10:18:06;3.10;;;1.80;;
793;SDS011;380;48.738;9.214;2024-02-26T10:20:32;2.90;;;1.67;;
793;SDS011;380;48.738;9.214;2024-02-26T10:22:58;2.85;;;1.58;;
793;SDS011;380;48.738;9.214;2024-02-26T10:25:24;2.92;;;2.00;;
793;SDS011;380;48.738;9.214;2024-02-26T10:27:50;3.08;;;2.20;;
793;SDS011;380;48.738;9.214;2024-02-26T10:30:17;3.00;;;2.35;;
793;SDS011;380;48.738;9.214;2024-02-26T10:32:44;3.85;;;2.20;;
793;SDS011;380;48.738;9.214;2024-02-26T10:35:10;5.80;;;2.63;;
793;SDS011;380;48.738;9.214;2024-02-26T10:37:36;2.80;;;1.98;;
793;SDS011;380;48.738;9.214;2024-02-26T10:40:02;2.67;;;1.60;;
793;SDS011;380;48.738;9.214;2024-02-26T10:42:30;3.75;;;2.25;;
793;SDS011;380;48.738;9.214;2024-02-26T10:44:57;2.47;;;1.67;;
793;SDS011;380;48.738;9.214;2024-02-26T10:47:23;2.47;;;1.65;;
793;SDS011;380;48.738;9.214;2024-02-26T10:49:50;2.65;;;1.90;;
793;SDS011;380;48.738;9.214;2024-02-26T10:52:16;4.07;;;1.98;;
793;SDS011;380;48.738;9.214;2024-02-26T10:54:45;2.65;;;1.65;;
793;SDS011;380;48.738;9.214;2024-02-26T10:57:13;2.50;;;1.60;;
793;SDS011;380;48.738;9.214;2024-02-26T10:59:39;2.20;;;1.40;;
793;SDS011;380;48.738;9.214;2024-02-26T11:02:05;4.25;;;1.70;;
793;SDS011;380;48.738;9.214;2024-02-26T11:04:33;2.95;;;1.25;;
793;SDS011;380;48.738;9.214;2024-02-26T11:06:59;2.50;;;1.38;;
793;SDS011;380;48.738;9.214;2024-02-26T11:09:26;1.80;;;1.08;;
793;SDS011;380;48.738;9.214;2024-02-26T11:11:52;4.95;;;1.30;;
793;SDS011;380;48.738;9.214;2024-02-26T11:14:19;2.45;;;1.52;;
793;SDS011;380;48.738;9.214;2024-02-26T11:16:46;1.88;;;1.08;;
793;SDS011;380;48.738;9.214;2024-02-26T11:19:13;2.47;;;1.58;;
793;SDS011;380;48.738;9.214;2024-02-26T11:21:39;2.65;;;1.13;;
793;SDS011;380;48.738;9.214;2024-02-26T11:24:13;2.00;;;1.13;;
793;SDS011;380;48.738;9.214;2024-02-26T11:26:41;1.58;;;1.00;;
793;SDS011;380;48.738;9.214;2024-02-26T11:29:10;2.35;;;1.10;;
793;SDS011;380;48.738;9.214;2024-02-26T11:31:40;2.10;;;1.27;;
793;SDS011;380;48.738;9.214;2024-02-26T11:34:07;2.28;;;1.38;;
793;SDS011;380;48.738;9.214;2024-02-26T11:36:34;2.97;;;1.63;;
793;SDS011;380;48.738;9.214;2024-02-26T11:39:02;4.13;;;1.55;;
793;SDS011;380;48.738;9.214;2024-02-26T11:41:29;2.70;;;0.88;;
793;SDS011;380;48.738;9.214;2024-02-26T11:44:00;3.03;;;1.30;;
793;SDS011;380;48.738;9.214;2024-02-26T11:46:27;2.80;;;0.95;;
793;SDS011;380;48.738;9.214;2024-02-26T11:48:56;1.90;;;1.00;;
793;SDS011;380;48.738;9.214;2024-02-26T11:51:27;2.13;;;1.05;;
793;SDS011;380;48.738;9.214;2024-02-26T11:53:53;2.03;;;1.00;;
793;SDS011;380;48.738;9.214;2024-02-26T11:56:22;2.92;;;1.10;;
793;SDS011;380;48.738;9.214;2024-02-26T11:58:48;5.47;;;1.20;;
793;SDS011;380;48.738;9.214;2024-02-26T12:04:04;2.10;;;1.27;;
793;SDS011;380;48.738;9.214;2024-02-26T12:06:30;4.70;;;1.00;;
793;SDS011;380;48.738;9.214;2024-02-26T12:08:56;1.95;;;0.88;;
793;SDS011;380;48.738;9.214;2024-02-26T12:11:22;3.83;;;1.42;;
793;SDS011;380;48.738;9.214;2024-02-26T12:13:48;1.80;;;1.13;;
793;SDS011;380;48.738;9.214;2024-02-26T12:16:34;1.92;;;0.90;;
793;SDS011;380;48.738;9.214;2024-02-26T12:19:00;2.08;;;0.95;;
793;SDS011;380;48.738;9.214;2024-02-26T12:21:27;2.55;;;1.30;;
793;SDS011;380;48.738;9.214;2024-02-26T12:23:53;2.80;;;1.55;;
793;SDS011;380;48.738;9.214;2024-02-26T12:26:19;2.55;;;1.23;;
793;SDS011;380;48.738;9.214;2024-02-26T12:28:46;1.60;;;0.90;;
793;SDS011;380;48.738;9.214;2024-02-26T12:31:12;2.72;;;1.10;;
793;SDS011;380;48.738;9.214;2024-02-26T12:33:39;2.03;;;0.70;;
793;SDS011;380;48.738;9.214;2024-02-26T12:36:05;2.53;;;0.80;;
793;SDS011;380;48.738;9.214;2024-02-26T12:38:31;3.47;;;1.70;;
793;SDS011;380;48.738;9.214;2024-02-26T12:40:57;3.85;;;0.93;;
793;SDS011;380;48.738;9.214;2024-02-26T12:43:23;3.05;;;1.67;;
793;SDS011;380;48.738;9.214;2024-02-26T12:45:49;2.00;;;1.20;;
793;SDS011;380;48.738;9.214;2024-02-26T12:48:15;1.90;;;1.13;;
793;SDS011;380;48.738;9.214;2024-02-26T12:50:44;1.42;;;0.77;;
793;SDS011;380;48.738;9.214;2024-02-26T12:55:37;3.35;;;1.25;;
793;SDS011;380;48.738;9.214;2024-02-26T12:58:05;2.45;;;1.40;;
793;SDS011;380;48.738;9.214;2024-02-26T13:00:31;2.22;;;1.23;;
793;SDS011;380;48.738;9.214;2024-02-26T13:02:57;4.20;;;1.50;;
793;SDS011;380;48.738;9.214;2024-02-26T13:05:24;2.97;;;1.33;;
793;SDS011;380;48.738;9.214;2024-02-26T13:07:51;2.35;;;1.20;;
793;SDS011;380;48.738;9.214;2024-02-26T13:10:18;3.03;;;1.63;;
793;SDS011;380;48.738;9.214;2024-02-26T13:12:45;2.03;;;1.25;;
793;SDS011;380;48.738;9.214;2024-02-26T13:15:15;2.25;;;1.50;;
793;SDS011;380;48.738;9.214;2024-02-26T13:17:42;1.90;;;1.10;;
793;SDS011;380;48.738;9.214;2024-02-26T13:20:08;2.65;;;1.75;;
793;SDS011;380;48.738;9.214;2024-02-26T13:22:35;2.92;;;1.33;;
793;SDS011;380;48.738;9.214;2024-02-26T13:25:01;2.40;;;1.33;;
793;SDS011;380;48.738;9.214;2024-02-26T13:27:32;2.97;;;1.70;;
793;SDS011;380;48.738;9.214;2024-02-26T13:30:02;2.42;;;1.30;;
793;SDS011;380;48.738;9.214;2024-02-26T13:32:31;3.05;;;1.38;;
793;SDS011;380;48.738;9.214;2024-02-26T13:35:12;2.38;;;1.27;;
793;SDS011;380;48.738;9.214;2024-02-26T13:37:39;2.10;;;1.23;;
793;SDS011;380;48.738;9.214;2024-02-26T13:40:11;2.35;;;1.30;;
793;SDS011;380;48.738;9.214;2024-02-26T13:42:37;3.97;;;2.25;;
793;SDS011;380;48.738;9.214;2024-02-26T13:45:04;2.38;;;1.30;;
793;SDS011;380;48.738;9.214;2024-02-26T13:47:34;4.55;;;1.50;;
793;SDS011;380;48.738;9.214;2024-02-26T13:50:00;2.53;;;1.23;;
793;SDS011;380;48.738;9.214;2024-02-26T13:52:26;2.88;;;0.88;;
793;SDS011;380;48.738;9.214;2024-02-26T13:54:52;2.15;;;1.23;;
793;SDS011;380;48.738;9.214;2024-02-26T13:57:18;2.63;;;1.08;;
793;SDS011;380;48.738;9.214;2024-02-26T13:59:45;1.98;;;1.30;;
793;SDS011;380;48.738;9.214;2024-02-26T14:02:11;1.88;;;0.95;;
793;SDS011;380;48.738;9.214;2024-02-26T14:04:37;2.13;;;0.85;;
793;SDS011;380;48.738;9.214;2024-02-26T14:07:04;2.53;;;1.17;;
793;SDS011;380;48.738;9.214;2024-02-26T14:09:30;2.75;;;1.42;;
793;SDS011;380;48.738;9.214;2024-02-26T14:11:57;2.10;;;1.00;;
793;SDS011;380;48.738;9.214;2024-02-26T14:14:23;2.35;;;1.17;;
793;SDS011;380;48.738;9.214;2024-02-26T14:16:48;1.25;;;0.65;;
793;SDS011;380;48.738;9.214;2024-02-26T14:19:14;1.75;;;0.90;;
793;SDS011;380;48.738;9.214;2024-02-26T14:21:40;1.83;;;0.82;;
793;SDS011;380;48.738;9.214;2024-02-26T14:24:07;4.55;;;0.88;;
793;SDS011;380;48.738;9.214;2024-02-26T14:26:33;1.35;;;0.70;;
793;SDS011;380;48.738;9.214;2024-02-26T14:28:59;1.50;;;0.68;;
793;SDS011;380;48.738;9.214;2024-02-26T14:31:25;3.10;;;0.70;;
793;SDS011;380;48.738;9.214;2024-02-26T14:33:51;1.42;;;0.60;;
793;SDS011;380;48.738;9.214;2024-02-26T14:36:19;1.45;;;0.57;;
793;SDS011;380;48.738;9.214;2024-02-26T14:38:45;1.42;;;0.75;;
793;SDS011;380;48.738;9.214;2024-02-26T14:41:11;1.10;;;0.50;;
793;SDS011;380;48.738;9.214;2024-02-26T14:43:37;2.33;;;0.50;;
793;SDS011;380;48.738;9.214;2024-02-26T14:46:03;1.90;;;0.63;;
793;SDS011;380;48.738;9.214;2024-02-26T14:48:29;1.65;;;0.70;;
793;SDS011;380;48.738;9.214;2024-02-26T14:50:56;1.23;;;0.40;;
793;SDS011;380;48.738;9.214;2024-02-26T14:53:22;1.95;;;0.70;;
793;SDS011;380;48.738;9.214;2024-02-26T14:55:48;1.27;;;0.65;;
793;SDS011;380;48.738;9.214;2024-02-26T14:58:14;1.88;;;0.65;;
793;SDS011;380;48.738;9.214;2024-02-26T15:00:40;1.63;;;0.57;;
793;SDS011;380;48.738;9.214;2024-02-26T15:03:06;2.00;;;0.88;;
793;SDS011;380;48.738;9.214;2024-02-26T15:05:33;1.88;;;0.73;;
793;SDS011;380;48.738;9.214;2024-02-26T15:08:00;1.73;;;0.90;;
793;SDS011;380;48.738;9.214;2024-02-26T15:10:27;1.40;;;0.70;;
793;SDS011;380;48.738;9.214;2024-02-26T15:12:53;1.67;;;0.88;;
793;SDS011;380;48.738;9.214;2024-02-26T15:15:23;1.30;;;0.65;;
793;SDS011;380;48.738;9.214;2024-02-26T15:17:49;1.85;;;0.75;;
793;SDS011;380;48.738;9.214;2024-02-26T15:20:16;2.58;;;0.80;;
793;SDS011;380;48.738;9.214;2024-02-26T15:22:42;1.92;;;0.73;;
793;SDS011;380;48.738;9.214;2024-02-26T15:25:08;1.55;;;1.05;;
793;SDS011;380;48.738;9.214;2024-02-26T15:27:34;1.60;;;0.82;;
793;SDS011;380;48.738;9.214;2024-02-26T15:30:00;1.35;;;0.60;;
793;SDS011;380;48.738;9.214;2024-02-26T15:32:27;1.42;;;0.68;;
793;SDS011;380;48.738;9.214;2024-02-26T15:34:53;1.13;;;0.60;;
793;SDS011;380;48.738;9.214;2024-02-26T15:37:19;1.85;;;0.90;;
793;SDS011;380;48.738;9.214;2024-02-26T15:39:45;1.60;;;0.88;;
793;SDS011;380;48.738;9.214;2024-02-26T15:42:11;2.97;;;0.98;;
793;SDS011;380;48.738;9.214;2024-02-26T15:44:38;1.85;;;0.93;;
793;SDS011;380;48.738;9.214;2024-02-26T15:47:04;2.85;;;0.90;;
793;SDS011;380;48.738;9.214;2024-02-26T15:49:33;1.77;;;0.95;;